sensor_id;sensor_type;location;lat;lon;timestamp;P1;durP1;ratioP1;P2;durP2;ratioP2
38248;SDS011;24045;51.138;17.126;2023-04-16T00:11:11;30.40;;;20.20;;
38248;SDS011;24045;51.138;17.126;2023-04-16T00:26:14;26.70;;;20.70;;
38248;SDS011;24045;51.138;17.126;2023-04-16T00:41:17;31.00;;;20.90;;
38248;SDS011;24045;51.138;17.126;2023-04-16T00:56:20;37.10;;;26.40;;
38248;SDS011;24045;51.138;17.126;2023-04-16T01:11:25;38.50;;;27.30;;
38248;SDS011;24045;51.138;17.126;2023-04-16T01:26:28;33.10;;;23.50;;
38248;SDS011;24045;51.138;17.126;2023-04-16T01:41:30;36.20;;;25.90;;
38248;SDS011;24045;51.138;17.126;2023-04-16T02:11:36;38.50;;;27.50;;
38248;SDS011;24045;51.138;17.126;2023-04-16T02:26:39;40.30;;;27.20;;
38248;SDS011;24045;51.138;17.126;2023-04-16T02:41:42;35.80;;;23.80;;
38248;SDS011;24045;51.138;17.126;2023-04-16T03:11:47;37.90;;;26.90;;
38248;SDS011;24045;51.138;17.126;2023-04-16T03:26:50;38.30;;;26.10;;
38248;SDS011;24045;51.138;17.126;2023-04-16T04:11:59;36.90;;;25.60;;
38248;SDS011;24045;51.138;17.126;2023-04-16T04:27:02;39.80;;;25.60;;
38248;SDS011;24045;51.138;17.126;2023-04-16T04:42:05;34.50;;;23.70;;
38248;SDS011;24045;51.138;17.126;2023-04-16T04:57:08;33.70;;;24.30;;
38248;SDS011;24045;51.138;17.126;2023-04-16T05:12:10;37.00;;;27.10;;
38248;SDS011;24045;51.138;17.126;2023-04-16T05:42:16;29.30;;;21.80;;
38248;SDS011;24045;51.138;17.126;2023-04-16T05:57:18;28.60;;;21.40;;
38248;SDS011;24045;51.138;17.126;2023-04-16T06:12:21;24.50;;;19.40;;
38248;SDS011;24045;51.138;17.126;2023-04-16T06:27:24;21.30;;;17.90;;
38248;SDS011;24045;51.138;17.126;2023-04-16T06:42:27;19.90;;;17.00;;
38248;SDS011;24045;51.138;17.126;2023-04-16T06:57:30;24.00;;;18.30;;
38248;SDS011;24045;51.138;17.126;2023-04-16T07:12:33;20.40;;;17.80;;
38248;SDS011;24045;51.138;17.126;2023-04-16T07:27:36;19.20;;;17.10;;
38248;SDS011;24045;51.138;17.126;2023-04-16T07:42:38;21.10;;;18.50;;
38248;SDS011;24045;51.138;17.126;2023-04-16T07:57:41;20.80;;;18.60;;
38248;SDS011;24045;51.138;17.126;2023-04-16T08:12:44;18.50;;;16.30;;
38248;SDS011;24045;51.138;17.126;2023-04-16T08:27:47;16.30;;;14.40;;
38248;SDS011;24045;51.138;17.126;2023-04-16T08:42:53;14.20;;;10.00;;
38248;SDS011;24045;51.138;17.126;2023-04-16T08:58:00;11.00;;;8.60;;
38248;SDS011;24045;51.138;17.126;2023-04-16T09:13:05;7.40;;;3.70;;
38248;SDS011;24045;51.138;17.126;2023-04-16T09:28:10;7.10;;;3.60;;
38248;SDS011;24045;51.138;17.126;2023-04-16T09:43:14;7.70;;;3.80;;
38248;SDS011;24045;51.138;17.126;2023-04-16T09:58:18;8.40;;;4.30;;
38248;SDS011;24045;51.138;17.126;2023-04-16T10:13:27;6.30;;;3.10;;
38248;SDS011;24045;51.138;17.126;2023-04-16T10:28:32;6.40;;;3.40;;
38248;SDS011;24045;51.138;17.126;2023-04-16T10:43:41;6.80;;;3.90;;
38248;SDS011;24045;51.138;17.126;2023-04-16T10:58:54;7.20;;;3.80;;
38248;SDS011;24045;51.138;17.126;2023-04-16T11:13:57;6.70;;;4.00;;
38248;SDS011;24045;51.138;17.126;2023-04-16T11:29:01;9.00;;;6.00;;
38248;SDS011;24045;51.138;17.126;2023-04-16T11:44:18;10.70;;;6.20;;
38248;SDS011;24045;51.138;17.126;2023-04-16T11:59:22;8.60;;;4.80;;
38248;SDS011;24045;51.138;17.126;2023-04-16T12:14:25;9.00;;;5.20;;
38248;SDS011;24045;51.138;17.126;2023-04-16T12:29:28;7.80;;;4.50;;
38248;SDS011;24045;51.138;17.126;2023-04-16T12:44:31;7.00;;;3.90;;
38248;SDS011;24045;51.138;17.126;2023-04-16T12:59:34;6.20;;;3.30;;
38248;SDS011;24045;51.138;17.126;2023-04-16T13:14:36;6.90;;;3.90;;
38248;SDS011;24045;51.138;17.126;2023-04-16T13:29:40;7.20;;;4.00;;
38248;SDS011;24045;51.138;17.126;2023-04-16T13:44:42;7.20;;;4.20;;
38248;SDS011;24045;51.138;17.126;2023-04-16T13:59:45;7.20;;;3.80;;
38248;SDS011;24045;51.138;17.126;2023-04-16T14:14:48;7.60;;;3.60;;
38248;SDS011;24045;51.138;17.126;2023-04-16T14:29:50;6.50;;;3.30;;
38248;SDS011;24045;51.138;17.126;2023-04-16T14:44:53;6.60;;;3.60;;
38248;SDS011;24045;51.138;17.126;2023-04-16T14:59:56;9.80;;;5.90;;
38248;SDS011;24045;51.138;17.126;2023-04-16T15:14:59;5.80;;;3.20;;
38248;SDS011;24045;51.138;17.126;2023-04-16T15:30:02;10.40;;;5.20;;
38248;SDS011;24045;51.138;17.126;2023-04-16T15:45:05;5.40;;;3.40;;
38248;SDS011;24045;51.138;17.126;2023-04-16T16:00:08;5.50;;;2.50;;
38248;SDS011;24045;51.138;17.126;2023-04-16T16:15:15;6.10;;;3.00;;
38248;SDS011;24045;51.138;17.126;2023-04-16T16:30:18;6.00;;;3.10;;
38248;SDS011;24045;51.138;17.126;2023-04-16T16:45:23;8.70;;;3.70;;
38248;SDS011;24045;51.138;17.126;2023-04-16T17:00:27;10.00;;;5.30;;
38248;SDS011;24045;51.138;17.126;2023-04-16T17:15:30;9.40;;;6.40;;
38248;SDS011;24045;51.138;17.126;2023-04-16T17:30:33;12.50;;;8.00;;
38248;SDS011;24045;51.138;17.126;2023-04-16T17:45:36;9.80;;;6.10;;
38248;SDS011;24045;51.138;17.126;2023-04-16T18:00:42;9.30;;;5.00;;
38248;SDS011;24045;51.138;17.126;2023-04-16T18:15:45;11.10;;;7.10;;
38248;SDS011;24045;51.138;17.126;2023-04-16T18:30:48;10.30;;;6.30;;
38248;SDS011;24045;51.138;17.126;2023-04-16T18:45:51;9.90;;;6.50;;
38248;SDS011;24045;51.138;17.126;2023-04-16T19:16:00;15.90;;;9.70;;
38248;SDS011;24045;51.138;17.126;2023-04-16T19:31:03;17.20;;;11.70;;
38248;SDS011;24045;51.138;17.126;2023-04-16T19:46:07;19.10;;;12.90;;
38248;SDS011;24045;51.138;17.126;2023-04-16T20:01:10;19.70;;;13.00;;
38248;SDS011;24045;51.138;17.126;2023-04-16T20:16:13;21.90;;;14.10;;
38248;SDS011;24045;51.138;17.126;2023-04-16T20:31:16;15.00;;;10.60;;
38248;SDS011;24045;51.138;17.126;2023-04-16T20:46:19;15.20;;;10.00;;
38248;SDS011;24045;51.138;17.126;2023-04-16T21:01:25;18.10;;;12.10;;
38248;SDS011;24045;51.138;17.126;2023-04-16T21:31:31;16.10;;;11.50;;
38248;SDS011;24045;51.138;17.126;2023-04-16T22:31:43;22.50;;;15.20;;
38248;SDS011;24045;51.138;17.126;2023-04-16T22:46:46;20.00;;;15.10;;
38248;SDS011;24045;51.138;17.126;2023-04-16T23:01:49;22.00;;;16.10;;
38248;SDS011;24045;51.138;17.126;2023-04-16T23:16:52;22.10;;;16.10;;
38248;SDS011;24045;51.138;17.126;2023-04-16T23:31:55;25.40;;;17.40;;
38248;SDS011;24045;51.138;17.126;2023-04-16T23:46:59;23.90;;;17.70;;
